Time;durP1;ratioP1;P1;durP2;ratioP2;P2;SDS_P1;SDS_P2;PMS_P1;PMS_P2;Temp;Humidity;BMP_temperature;BMP_pressure;BME280_temperature;BME280_humidity;BME280_pressure;Samples;Min_cycle;Max_cycle;Signal;HPM_P1;HPM_P2
2024/02/08 00:00:10;;;;;;;5.53;5.03;;;17.50;1.00;;;;;;2612290;54;20151;-65
2024/02/08 00:02:36;;;;;;;6.00;4.43;;;17.60;1.00;;;;;;2611817;54;20178;-64
2024/02/08 00:05:06;;;;;;;5.23;4.73;;;17.50;1.00;;;;;;2611861;54;20508;-65
2024/02/08 00:07:32;;;;;;;5.20;4.70;;;17.50;1.00;;;;;;2613158;54;20416;-65
2024/02/08 00:09:58;;;;;;;6.07;5.37;;;17.60;1.00;;;;;;2613302;39;20970;-65
2024/02/08 00:12:24;;;;;;;6.03;5.47;;;17.50;1.00;;;;;;2612556;54;21043;-59
2024/02/08 00:14:50;;;;;;;5.37;4.87;;;17.50;1.00;;;;;;2613117;54;20147;-58
2024/02/08 00:17:20;;;;;;;5.23;4.53;;;17.50;1.00;;;;;;2612712;54;20151;-59
2024/02/08 00:19:48;;;;;;;4.67;4.27;;;17.60;1.00;;;;;;2612693;54;20424;-59
2024/02/08 00:22:21;;;;;;;5.17;4.67;;;17.50;1.00;;;;;;2614149;39;20471;-59
2024/02/08 00:24:47;;;;;;;5.70;5.10;;;17.50;1.00;;;;;;2612712;54;20468;-59
2024/02/08 00:27:13;;;;;;;5.53;4.93;;;17.50;1.00;;;;;;2612819;54;20401;-58
2024/02/08 00:29:41;;;;;;;5.73;4.70;;;17.50;1.00;;;;;;2612132;54;20411;-59
2024/02/08 00:32:08;;;;;;;6.20;5.33;;;17.50;1.00;;;;;;2613057;54;20439;-60
2024/02/08 00:34:34;;;;;;;5.33;4.83;;;17.50;1.00;;;;;;2612610;54;20472;-59
2024/02/08 00:37:00;;;;;;;4.50;4.10;;;17.60;1.00;;;;;;2612465;54;20556;-59
2024/02/08 00:39:25;;;;;;;5.17;4.67;;;17.50;1.00;;;;;;2612816;39;20540;-59
2024/02/08 00:41:57;;;;;;;5.77;5.17;;;17.50;1.00;;;;;;2612394;54;20144;-62
2024/02/08 00:44:26;;;;;;;6.37;5.37;;;17.50;1.00;;;;;;2612307;54;20167;-60
2024/02/08 00:46:51;;;;;;;5.83;5.20;;;17.50;1.00;;;;;;2612806;54;20452;-60
2024/02/08 00:49:17;;;;;;;5.53;4.73;;;17.50;1.00;;;;;;2613247;54;20435;-60
2024/02/08 00:51:43;;;;;;;4.93;4.43;;;17.50;1.00;;;;;;2613245;54;20198;-59
2024/02/08 00:54:09;;;;;;;5.33;4.83;;;17.50;1.00;;;;;;2611980;54;20268;-60
2024/02/08 00:56:35;;;;;;;6.13;5.63;;;17.50;1.00;;;;;;2612922;54;20158;-60
2024/02/08 00:59:00;;;;;;;5.93;5.43;;;17.50;1.00;;;;;;2613140;39;20804;-60
2024/02/08 01:01:30;;;;;;;5.77;5.27;;;17.50;1.00;;;;;;2613067;54;20243;-60
2024/02/08 01:03:56;;;;;;;5.40;4.90;;;17.50;1.00;;;;;;2612687;54;20178;-59
2024/02/08 01:06:22;;;;;;;5.43;4.93;;;17.50;1.00;;;;;;2611683;47;20427;-59
2024/02/08 01:08:47;;;;;;;4.80;4.40;;;17.50;1.00;;;;;;2612295;54;20276;-59
2024/02/08 01:11:13;;;;;;;5.37;4.87;;;17.50;1.00;;;;;;2613162;47;20174;-59
2024/02/08 01:13:39;;;;;;;5.30;4.80;;;17.50;1.00;;;;;;2612745;54;20255;-59
2024/02/08 01:16:05;;;;;;;5.10;4.67;;;17.50;1.00;;;;;;2612762;54;21047;-60
2024/02/08 01:18:32;;;;;;;5.03;4.53;;;17.50;1.00;;;;;;2612534;54;20167;-59
2024/02/08 01:21:00;;;;;;;4.67;4.27;;;17.50;1.00;;;;;;2612295;39;20814;-60
2024/02/08 01:23:25;;;;;;;5.93;5.00;;;17.50;1.00;;;;;;2613183;54;20413;-59
2024/02/08 01:25:52;;;;;;;5.43;4.93;;;17.50;1.00;;;;;;2613461;39;20876;-59
2024/02/08 01:28:17;;;;;;;4.87;4.40;;;17.50;1.00;;;;;;2613374;54;20171;-60
2024/02/08 01:30:45;;;;;;;5.77;5.27;;;17.50;1.00;;;;;;2612377;39;20750;-58
2024/02/08 01:33:11;;;;;;;5.60;5.10;;;17.50;1.00;;;;;;2612474;54;20156;-59
2024/02/08 01:35:39;;;;;;;5.80;5.30;;;17.50;1.00;;;;;;2612103;54;20443;-59
2024/02/08 01:38:06;;;;;;;5.20;4.70;;;17.50;1.00;;;;;;2612903;54;20168;-60
2024/02/08 01:40:32;;;;;;;5.00;4.60;;;17.50;1.00;;;;;;2612826;54;20975;-58
2024/02/08 01:42:58;;;;;;;5.20;4.70;;;17.50;1.00;;;;;;2612153;47;20548;-59
2024/02/08 01:45:59;;;;;;;5.67;5.17;;;17.50;1.00;;;;;;2612370;54;20157;-59
2024/02/08 01:48:18;;;;;;;6.83;5.67;;;17.50;1.00;;;;;;2611768;54;20199;-59
2024/02/08 01:50:50;;;;;;;5.33;4.83;;;17.50;1.00;;;;;;2612882;47;20427;-58
2024/02/08 01:53:21;;;;;;;5.50;5.00;;;17.50;1.00;;;;;;2612273;54;20170;-58
2024/02/08 01:55:49;;;;;;;5.37;4.77;;;17.50;1.00;;;;;;2613235;39;20872;-59
2024/02/08 01:58:15;;;;;;;4.70;4.27;;;17.50;1.00;;;;;;2611464;54;20440;-58
2024/02/08 02:00:48;;;;;;;5.13;4.73;;;17.50;1.00;;;;;;2612517;39;21078;-59
2024/02/08 02:03:15;;;;;;;5.13;4.73;;;17.50;1.00;;;;;;2613022;54;20444;-58
2024/02/08 02:05:42;;;;;;;5.37;4.97;;;17.50;1.00;;;;;;2612437;54;20441;-59
2024/02/08 02:08:26;;;;;;;5.07;4.57;;;17.50;1.00;;;;;;2612700;54;20696;-59
2024/02/08 02:11:22;;;;;;;6.07;5.47;;;17.50;1.00;;;;;;2612898;54;20454;-59
2024/02/08 02:13:49;;;;;;;5.83;4.67;;;17.40;1.00;;;;;;2613074;54;20416;-73
2024/02/08 02:16:15;;;;;;;5.40;4.90;;;17.40;1.00;;;;;;2612748;54;20428;-73
2024/02/08 02:18:41;;;;;;;6.50;5.67;;;17.50;1.00;;;;;;2613095;54;20438;-72
2024/02/08 02:21:13;;;;;;;5.03;4.60;;;17.40;1.00;;;;;;2613067;54;20408;-72
2024/02/08 02:23:41;;;;;;;5.80;5.23;;;17.40;1.00;;;;;;2612438;54;20211;-73
2024/02/08 02:26:07;;;;;;;5.10;4.60;;;17.40;1.00;;;;;;2612394;39;20814;-73
2024/02/08 02:28:33;;;;;;;8.27;5.00;;;17.50;1.00;;;;;;2613395;54;20397;-73
2024/02/08 02:31:05;;;;;;;4.87;4.33;;;17.40;1.00;;;;;;2613183;47;20421;-73
2024/02/08 02:33:36;;;;;;;6.33;5.73;;;17.50;1.00;;;;;;2612787;54;20432;-65
2024/02/08 02:36:03;;;;;;;5.70;4.97;;;17.40;1.00;;;;;;2612744;54;20399;-65
2024/02/08 02:38:29;;;;;;;5.20;4.50;;;17.40;1.00;;;;;;2612269;54;20417;-65
2024/02/08 02:40:55;;;;;;;5.13;4.63;;;17.40;1.00;;;;;;2612856;39;20920;-65
2024/02/08 02:43:26;;;;;;;5.40;5.00;;;17.40;1.00;;;;;;2612613;54;20408;-65
2024/02/08 02:45:55;;;;;;;6.20;5.53;;;17.40;1.00;;;;;;2612904;54;20191;-65
2024/02/08 02:48:21;;;;;;;5.37;4.87;;;17.40;1.00;;;;;;2612272;47;20453;-65
2024/02/08 02:50:51;;;;;;;4.77;4.33;;;17.50;1.00;;;;;;2611973;39;20462;-64
2024/02/08 02:53:17;;;;;;;5.57;4.87;;;17.50;1.00;;;;;;2612739;54;20202;-65
2024/02/08 02:55:43;;;;;;;5.70;5.00;;;17.40;1.00;;;;;;2613199;54;20417;-64
2024/02/08 02:58:09;;;;;;;5.53;5.03;;;17.40;1.00;;;;;;2612679;47;20413;-65
2024/02/08 03:00:34;;;;;;;5.10;4.70;;;17.40;1.00;;;;;;2611163;51;20452;-66
2024/02/08 03:03:07;;;;;;;5.47;4.93;;;17.50;1.00;;;;;;2612647;47;20167;-62
2024/02/08 03:05:35;;;;;;;5.37;4.97;;;17.40;1.00;;;;;;2611739;54;20173;-63
2024/02/08 03:08:05;;;;;;;5.93;4.87;;;17.40;1.00;;;;;;2613439;39;20827;-62
2024/02/08 03:10:32;;;;;;;4.93;4.60;;;17.40;1.00;;;;;;2612404;54;20408;-62
2024/02/08 03:12:58;;;;;;;5.80;5.20;;;17.40;1.00;;;;;;2612063;54;20436;-63
2024/02/08 03:15:24;;;;;;;5.57;5.07;;;17.50;1.00;;;;;;2613059;39;20975;-62
2024/02/08 03:17:50;;;;;;;5.77;5.17;;;17.40;1.00;;;;;;2612581;54;20479;-63
2024/02/08 03:20:35;;;;;;;6.07;5.57;;;17.40;1.00;;;;;;2612339;54;20155;-62
2024/02/08 03:23:01;;;;;;;6.67;5.73;;;17.40;1.00;;;;;;2612513;54;20427;-73
2024/02/08 03:25:30;;;;;;;5.23;4.83;;;17.50;1.00;;;;;;2612235;47;20516;-73
2024/02/08 03:27:56;;;;;;;5.30;4.80;;;17.40;1.00;;;;;;2613013;54;20401;-73
2024/02/08 03:30:22;;;;;;;5.43;4.93;;;17.40;1.00;;;;;;2612742;54;20413;-73
2024/02/08 03:32:55;;;;;;;5.30;4.87;;;17.40;1.00;;;;;;2611917;54;20440;-72
2024/02/08 03:35:25;;;;;;;6.83;5.97;;;17.40;1.00;;;;;;2613123;47;20420;-73
2024/02/08 03:37:54;;;;;;;4.87;4.47;;;17.40;1.00;;;;;;2613829;47;20443;-72
2024/02/08 03:40:20;;;;;;;7.30;4.97;;;17.40;1.00;;;;;;2613957;54;20411;-73
2024/02/08 03:42:49;;;;;;;5.70;4.73;;;17.40;1.00;;;;;;2612662;54;20405;-58
2024/02/08 03:45:23;;;;;;;5.60;5.10;;;17.40;1.00;;;;;;2612247;54;20426;-58
2024/02/08 03:47:52;;;;;;;5.50;5.03;;;17.40;1.00;;;;;;2613247;54;21004;-58
2024/02/08 03:50:19;;;;;;;5.20;4.70;;;17.40;1.00;;;;;;2613807;39;21173;-59
2024/02/08 03:52:45;;;;;;;5.27;4.10;;;17.40;1.00;;;;;;2613538;47;20484;-59
2024/02/08 03:55:13;;;;;;;5.57;5.07;;;17.40;1.00;;;;;;2612618;54;20415;-59
2024/02/08 03:57:39;;;;;;;5.03;4.63;;;17.40;1.00;;;;;;2612609;54;20536;-59
2024/02/08 04:00:13;;;;;;;5.73;5.23;;;17.40;1.00;;;;;;2612661;54;20419;-59
2024/02/08 04:02:43;;;;;;;6.10;5.10;;;17.40;1.00;;;;;;2612610;47;20428;-59
2024/02/08 04:05:19;;;;;;;5.60;5.10;;;17.40;1.00;;;;;;2613430;47;20548;-59
2024/02/08 04:07:56;;;;;;;5.73;5.17;;;17.40;1.00;;;;;;2613075;47;20435;-59
2024/02/08 04:53:30;;;;;;;6.00;5.50;;;17.40;1.00;;;;;;2613111;54;20543;-59
2024/02/08 04:54:59;;;;;;;6.23;5.07;;;17.40;1.00;;;;;;2611270;47;20433;-60
2024/02/08 04:57:25;;;;;;;5.60;5.13;;;17.40;1.00;;;;;;2611203;54;20472;-60
2024/02/08 04:59:51;;;;;;;4.87;4.47;;;17.30;1.00;;;;;;2611468;54;20401;-60
2024/02/08 05:02:16;;;;;;;5.23;4.73;;;17.30;1.00;;;;;;2611761;54;20730;-59
2024/02/08 05:04:48;;;;;;;5.70;5.30;;;17.30;1.00;;;;;;2612229;39;20667;-60
2024/02/08 05:07:14;;;;;;;5.30;4.77;;;17.30;1.00;;;;;;2610966;39;20666;-60
2024/02/08 05:09:40;;;;;;;5.53;4.97;;;17.40;1.00;;;;;;2611604;47;20512;-60
2024/02/08 05:12:07;;;;;;;5.30;4.90;;;17.30;1.00;;;;;;2610460;47;20161;-60
2024/02/08 05:14:36;;;;;;;5.10;4.70;;;17.30;1.00;;;;;;2611808;54;20186;-60
2024/02/08 05:17:02;;;;;;;5.00;4.50;;;17.30;1.00;;;;;;2611706;54;20417;-59
2024/02/08 05:19:28;;;;;;;5.27;4.73;;;17.30;1.00;;;;;;2611809;39;20805;-59
2024/02/08 05:21:54;;;;;;;5.10;4.60;;;17.30;1.00;;;;;;2611513;54;20492;-59
2024/02/08 05:24:20;;;;;;;5.87;5.37;;;17.30;1.00;;;;;;2611144;31;20941;-65
2024/02/08 05:26:46;;;;;;;4.97;4.63;;;17.30;1.00;;;;;;2610576;52;20450;-65
2024/02/08 05:29:19;;;;;;;5.07;4.60;;;17.30;1.00;;;;;;2612363;51;20426;-65
2024/02/08 05:31:49;;;;;;;6.70;4.60;;;17.30;1.00;;;;;;2613284;39;20828;-64
2024/02/08 05:34:16;;;;;;;4.73;4.33;;;17.30;1.00;;;;;;2612811;54;20427;-64
2024/02/08 05:36:42;;;;;;;4.93;4.43;;;17.30;1.00;;;;;;2612295;54;20407;-65
2024/02/08 05:39:12;;;;;;;6.20;5.30;;;17.30;1.00;;;;;;2613735;39;21546;-65
2024/02/08 05:41:40;;;;;;;6.40;4.93;;;17.30;1.00;;;;;;2613047;54;20403;-64
2024/02/08 05:44:08;;;;;;;4.80;4.40;;;17.30;1.00;;;;;;2612961;54;21036;-65
2024/02/08 05:46:40;;;;;;;4.70;4.40;;;17.30;1.00;;;;;;2612855;54;20425;-64
2024/02/08 05:49:11;;;;;;;5.50;5.00;;;17.30;1.00;;;;;;2612746;47;20687;-66
2024/02/08 05:51:42;;;;;;;5.20;4.80;;;17.30;1.00;;;;;;2613066;31;20871;-64
2024/02/08 05:54:08;;;;;;;5.23;4.83;;;17.30;1.00;;;;;;2612345;47;20444;-64
2024/02/08 05:56:39;;;;;;;4.10;3.80;;;17.30;1.00;;;;;;2613039;54;20403;-64
2024/02/08 05:59:08;;;;;;;4.60;4.20;;;17.30;1.00;;;;;;2612571;54;20161;-64
2024/02/08 06:01:44;;;;;;;5.20;4.73;;;17.30;1.00;;;;;;2612073;54;20527;-64
2024/02/08 06:04:25;;;;;;;5.40;4.80;;;17.30;1.00;;;;;;2612744;54;20430;-64
2024/02/08 06:07:06;;;;;;;5.33;4.80;;;17.30;1.00;;;;;;2611912;54;20977;-63
2024/02/08 06:09:47;;;;;;;5.00;4.60;;;17.30;1.00;;;;;;2612637;47;20432;-64
2024/02/08 06:12:28;;;;;;;4.37;3.97;;;17.30;1.00;;;;;;2613522;39;20978;-65
2024/02/08 06:14:58;;;;;;;4.80;4.40;;;17.30;1.00;;;;;;2613062;39;20852;-64
2024/02/08 06:17:33;;;;;;;4.43;4.13;;;17.30;1.00;;;;;;2611891;54;20431;-65
2024/02/08 06:20:08;;;;;;;4.80;3.97;;;17.30;1.00;;;;;;2612647;54;20948;-64
2024/02/08 06:22:39;;;;;;;4.80;4.40;;;17.30;1.00;;;;;;2612671;54;20416;-65
2024/02/08 06:25:24;;;;;;;5.17;4.77;;;17.30;1.00;;;;;;2612311;54;20412;-65
2024/02/08 06:27:50;;;;;;;4.40;4.00;;;17.30;1.00;;;;;;2612737;54;21456;-64
2024/02/08 06:30:18;;;;;;;5.73;4.37;;;17.30;1.00;;;;;;2611611;47;20539;-64
2024/02/08 06:32:57;;;;;;;5.00;4.17;;;17.30;1.00;;;;;;2612120;51;20279;-60
2024/02/08 06:35:28;;;;;;;4.97;4.57;;;17.30;1.00;;;;;;2612047;54;20406;-59
2024/02/08 06:38:00;;;;;;;5.10;4.60;;;17.30;1.00;;;;;;2612362;54;20528;-58
2024/02/08 06:40:50;;;;;;;4.80;4.40;;;17.30;1.00;;;;;;2612611;54;20396;-58
2024/02/08 07:37:25;;;;;;;4.60;4.20;;;17.20;1.00;;;;;;2614294;54;20390;-73
2024/02/08 07:40:00;;;;;;;5.00;4.60;;;17.20;1.00;;;;;;2613775;54;20428;-73
2024/02/08 07:42:32;;;;;;;5.07;4.53;;;17.20;1.00;;;;;;2614502;54;20164;-73
2024/02/08 07:44:58;;;;;;;6.20;5.60;;;17.20;1.00;;;;;;2614476;54;20408;-73
2024/02/08 07:47:24;;;;;;;5.67;4.97;;;17.20;1.00;;;;;;2613742;54;20502;-73
2024/02/08 07:50:21;;;;;;;6.00;5.37;;;17.20;1.00;;;;;;2613425;54;20434;-73
2024/02/08 07:52:45;;;;;;;5.97;5.47;;;17.20;1.00;;;;;;2613946;47;20488;-72
2024/02/08 07:55:20;;;;;;;6.20;5.60;;;17.20;1.00;;;;;;2613781;39;20884;-73
2024/02/08 07:57:48;;;;;;;5.30;4.80;;;17.20;1.00;;;;;;2613494;54;20452;-72
2024/02/08 08:00:41;;;;;;;5.30;4.80;;;17.20;1.00;;;;;;2613281;50;20424;-72
2024/02/08 08:03:15;;;;;;;5.77;5.20;;;17.20;1.00;;;;;;2613548;39;21135;-62
2024/02/08 08:05:44;;;;;;;5.20;4.70;;;17.20;1.00;;;;;;2613501;54;20469;-62
2024/02/08 08:08:24;;;;;;;4.80;4.40;;;17.20;1.00;;;;;;2613485;47;20444;-61
2024/02/08 08:11:05;;;;;;;5.67;5.20;;;17.20;1.00;;;;;;2613047;54;20425;-61
2024/02/08 08:19:10;;;;;;;5.97;5.33;;;17.20;1.00;;;;;;2612999;47;20408;-61
2024/02/08 08:24:25;;;;;;;5.27;4.77;;;17.20;1.00;;;;;;2613270;54;20407;-59
2024/02/08 08:30:07;;;;;;;7.70;5.53;;;17.20;1.00;;;;;;2611887;47;20445;-60
2024/02/08 08:37:48;;;;;;;6.00;5.47;;;17.20;1.00;;;;;;2611139;54;20260;-59
2024/02/08 08:40:23;;;;;;;6.13;5.53;;;17.20;1.00;;;;;;2611713;54;21063;-59
2024/02/08 08:42:50;;;;;;;4.80;4.40;;;17.20;1.00;;;;;;2611292;39;20803;-59
2024/02/08 08:45:19;;;;;;;5.13;4.73;;;17.20;1.00;;;;;;2612026;39;20485;-59
2024/02/08 08:48:00;;;;;;;4.30;4.00;;;17.20;1.00;;;;;;2611664;39;20811;-59
2024/02/08 08:50:31;;;;;;;5.33;4.93;;;17.20;1.00;;;;;;2611451;51;20429;-59
2024/02/08 08:53:07;;;;;;;4.80;4.40;;;17.30;1.00;;;;;;2611152;54;20399;-59
2024/02/08 08:55:39;;;;;;;5.17;4.67;;;17.20;1.00;;;;;;2610577;54;21444;-59
2024/02/08 08:58:12;;;;;;;5.80;5.30;;;17.30;1.00;;;;;;2610456;54;20441;-59
2024/02/08 09:00:40;;;;;;;5.20;4.70;;;17.20;1.00;;;;;;2611255;39;20937;-60
2024/02/08 09:03:10;;;;;;;5.07;4.67;;;17.20;1.00;;;;;;2612989;54;20459;-59
2024/02/08 09:05:36;;;;;;;4.70;4.30;;;17.20;1.00;;;;;;2612458;39;21134;-59
2024/02/08 09:08:09;;;;;;;5.70;4.60;;;17.20;1.00;;;;;;2612336;54;20406;-59
2024/02/08 09:10:40;;;;;;;5.70;5.20;;;17.20;1.00;;;;;;2612817;47;20424;-59
2024/02/08 09:13:07;;;;;;;5.33;4.83;;;17.20;1.00;;;;;;2613505;39;21299;-66
2024/02/08 09:15:55;;;;;;;4.90;4.60;;;17.20;1.00;;;;;;2613086;51;20402;-66
2024/02/08 09:18:55;;;;;;;5.23;4.80;;;17.20;1.00;;;;;;2612180;54;20455;-64
2024/02/08 09:21:10;;;;;;;5.20;4.70;;;17.20;1.00;;;;;;2612910;54;20435;-64
2024/02/08 09:23:38;;;;;;;5.77;5.37;;;17.20;1.00;;;;;;2612349;54;20463;-66
2024/02/08 09:26:05;;;;;;;5.30;4.80;;;17.20;1.00;;;;;;2613021;54;20446;-65
2024/02/08 09:28:42;;;;;;;4.63;4.23;;;17.20;1.00;;;;;;2612138;54;21081;-65
2024/02/08 09:31:16;;;;;;;5.13;4.63;;;17.20;1.00;;;;;;2612537;54;21336;-64
2024/02/08 09:33:47;;;;;;;5.57;5.07;;;17.20;1.00;;;;;;2613036;47;20595;-73
2024/02/08 09:36:16;;;;;;;5.37;4.87;;;17.20;1.00;;;;;;2613865;54;20534;-73
2024/02/08 09:38:43;;;;;;;5.10;4.60;;;17.20;1.00;;;;;;2613327;54;20407;-73
2024/02/08 09:41:23;;;;;;;4.70;4.30;;;17.20;1.00;;;;;;2611922;54;20426;-73
2024/02/08 09:43:56;;;;;;;5.80;5.17;;;17.20;1.00;;;;;;2613576;39;21003;-73
2024/02/08 09:49:17;;;;;;;5.27;4.83;;;17.20;1.00;;;;;;2612142;47;20401;-73
2024/02/08 09:51:53;;;;;;;5.53;5.07;;;17.20;1.00;;;;;;2612838;54;20403;-72
2024/02/08 09:54:27;;;;;;;4.77;4.33;;;17.20;1.00;;;;;;2613712;54;20408;-73
2024/02/08 09:57:01;;;;;;;5.33;4.07;;;17.20;1.00;;;;;;2614090;39;20879;-72
2024/02/08 09:59:58;;;;;;;5.93;5.07;;;17.20;1.00;;;;;;2612284;54;20423;-73
2024/02/08 10:02:32;;;;;;;4.60;4.20;;;17.20;1.00;;;;;;2611830;54;20514;-65
2024/02/08 10:05:18;;;;;;;5.10;4.27;;;17.20;1.00;;;;;;2611980;54;20412;-65
2024/02/08 10:08:05;;;;;;;4.87;4.47;;;17.20;1.00;;;;;;2612698;54;20423;-65
2024/02/08 10:10:56;;;;;;;5.83;5.33;;;17.20;1.00;;;;;;2611702;47;20553;-65
2024/02/08 10:13:30;;;;;;;4.37;3.97;;;17.20;1.00;;;;;;2612993;47;20431;-64
2024/02/08 10:15:58;;;;;;;4.90;4.50;;;17.20;1.00;;;;;;2612440;54;20445;-66
2024/02/08 10:18:37;;;;;;;4.10;3.70;;;17.20;1.00;;;;;;2612132;39;20905;-65
2024/02/08 10:21:12;;;;;;;4.33;3.90;;;17.20;1.00;;;;;;2613290;54;20404;-65
2024/02/08 10:23:59;;;;;;;4.80;3.77;;;17.20;1.00;;;;;;2612717;54;20422;-60
2024/02/08 10:26:38;;;;;;;4.10;3.80;;;17.20;1.00;;;;;;2612264;54;20392;-60
2024/02/08 10:29:07;;;;;;;5.07;4.57;;;17.20;1.00;;;;;;2612608;54;20408;-59
2024/02/08 10:31:37;;;;;;;4.10;3.80;;;17.20;1.00;;;;;;2612764;54;20452;-60
2024/02/08 10:34:09;;;;;;;4.67;4.27;;;17.20;1.00;;;;;;2612795;54;20426;-59
2024/02/08 10:36:44;;;;;;;4.50;4.10;;;17.20;1.00;;;;;;2612117;54;20398;-59
2024/02/08 10:39:26;;;;;;;4.83;4.47;;;17.20;1.00;;;;;;2612451;54;20438;-59
2024/02/08 10:41:58;;;;;;;4.13;3.73;;;17.20;1.00;;;;;;2612424;54;20433;-60
2024/02/08 10:44:29;;;;;;;4.50;4.20;;;17.20;1.00;;;;;;2611808;54;21312;-61
2024/02/08 10:47:09;;;;;;;4.17;3.87;;;17.20;1.00;;;;;;2612232;54;20457;-62
2024/02/08 10:49:44;;;;;;;3.80;3.50;;;17.20;1.00;;;;;;2613437;39;20700;-61
2024/02/08 10:52:19;;;;;;;3.80;3.50;;;17.20;1.00;;;;;;2613620;54;20425;-61
2024/02/08 10:54:51;;;;;;;4.07;3.77;;;17.20;1.00;;;;;;2613525;54;20410;-60
2024/02/08 11:03:07;;;;;;;4.43;4.03;;;17.20;1.00;;;;;;2613319;54;20430;-61
2024/02/08 11:06:00;;;;;;;4.53;4.03;;;17.20;1.00;;;;;;2612615;54;20403;-62
2024/02/08 11:08:50;;;;;;;5.33;3.90;;;17.20;1.00;;;;;;2613530;54;20425;-61
2024/02/08 11:11:20;;;;;;;3.90;3.60;;;17.20;1.00;;;;;;2612768;39;21149;-61
2024/02/08 11:13:53;;;;;;;4.60;4.20;;;17.20;1.00;;;;;;2612686;39;20797;-59
2024/02/08 11:16:33;;;;;;;3.90;3.60;;;17.20;1.00;;;;;;2613276;54;20403;-59
2024/02/08 11:19:04;;;;;;;4.30;3.90;;;17.20;1.00;;;;;;2612786;47;20421;-59
2024/02/08 11:21:43;;;;;;;4.07;3.77;;;17.20;1.00;;;;;;2614081;39;20798;-58
2024/02/08 11:24:29;;;;;;;4.00;3.70;;;17.20;1.00;;;;;;2613164;54;20422;-58
2024/02/08 11:27:01;;;;;;;3.83;3.40;;;17.20;1.00;;;;;;2613518;54;20434;-58
2024/02/08 11:29:28;;;;;;;3.60;3.30;;;17.20;1.00;;;;;;2612709;54;20379;-59
2024/02/08 11:31:59;;;;;;;3.57;3.27;;;17.20;1.00;;;;;;2614166;39;20948;-65
2024/02/08 11:34:33;;;;;;;4.43;3.40;;;17.20;1.00;;;;;;2613190;54;20423;-65
2024/02/08 11:37:13;;;;;;;3.20;3.00;;;17.20;1.00;;;;;;2613937;39;20765;-66
2024/02/08 11:39:40;;;;;;;4.10;3.70;;;17.20;1.00;;;;;;2613900;39;20829;-66
2024/02/08 11:42:16;;;;;;;3.53;3.33;;;17.20;1.00;;;;;;2611702;54;21049;-65
2024/02/08 11:44:43;;;;;;;3.77;3.27;;;17.20;1.00;;;;;;2613328;54;20440;-64
2024/02/08 11:47:19;;;;;;;3.73;3.40;;;17.20;1.00;;;;;;2613211;54;20440;-64
2024/02/08 11:49:52;;;;;;;3.87;3.47;;;17.20;1.00;;;;;;2612521;47;20423;-65
2024/02/08 11:52:23;;;;;;;3.97;3.60;;;17.20;1.00;;;;;;2613135;54;20400;-58
2024/02/08 11:55:10;;;;;;;4.30;4.00;;;17.20;1.00;;;;;;2613562;54;20399;-58
2024/02/08 11:57:37;;;;;;;4.30;3.90;;;17.20;1.00;;;;;;2613291;54;20428;-58
2024/02/08 12:00:16;;;;;;;3.03;2.70;;;17.20;1.00;;;;;;2611753;54;20434;-58
2024/02/08 12:02:58;;;;;;;4.80;3.60;;;17.20;1.00;;;;;;2612133;54;20404;-58
2024/02/08 12:05:28;;;;;;;4.27;3.50;;;17.20;1.00;;;;;;2613301;54;20445;-58
2024/02/08 12:08:08;;;;;;;3.30;3.00;;;17.20;1.00;;;;;;2613202;54;20419;-58
2024/02/08 12:10:35;;;;;;;3.23;3.03;;;17.20;1.00;;;;;;2612956;54;20419;-58
2024/02/08 12:13:01;;;;;;;4.43;3.60;;;17.10;1.00;;;;;;2613034;54;20428;-59
2024/02/08 12:15:28;;;;;;;3.97;3.67;;;17.20;1.00;;;;;;2612395;47;20429;-57
2024/02/08 12:18:12;;;;;;;3.60;3.30;;;17.10;1.00;;;;;;2613103;54;20434;-58
2024/02/08 12:20:38;;;;;;;3.30;3.00;;;17.20;1.00;;;;;;2613122;39;21244;-57
2024/02/08 12:23:04;;;;;;;3.40;3.10;;;17.20;1.00;;;;;;2612280;54;20432;-65
2024/02/08 12:25:30;;;;;;;3.17;2.87;;;17.20;1.00;;;;;;2613106;47;20151;-66
2024/02/08 12:28:02;;;;;;;3.50;3.20;;;17.20;1.00;;;;;;2612260;54;20429;-65
2024/02/08 12:30:33;;;;;;;3.93;3.53;;;17.10;1.00;;;;;;2613352;47;20791;-66
2024/02/08 12:33:07;;;;;;;3.40;3.10;;;17.20;1.00;;;;;;2613194;54;20414;-65
2024/02/08 12:35:42;;;;;;;3.53;3.23;;;17.20;1.00;;;;;;2612005;54;20404;-67
2024/02/08 12:38:11;;;;;;;3.90;3.20;;;17.20;1.00;;;;;;2612778;39;20864;-66
2024/02/08 12:40:37;;;;;;;3.37;3.07;;;17.10;1.00;;;;;;2612848;54;20509;-67
2024/02/08 12:43:07;;;;;;;2.90;2.70;;;17.20;1.00;;;;;;2612339;54;20467;-61
2024/02/08 12:45:34;;;;;;;3.70;3.30;;;17.10;1.00;;;;;;2613584;47;20522;-61
2024/02/08 12:48:04;;;;;;;4.37;3.80;;;17.20;1.00;;;;;;2612159;54;20533;-61
2024/02/08 12:50:37;;;;;;;3.20;2.90;;;17.20;1.00;;;;;;2612736;54;20438;-60
2024/02/08 12:53:07;;;;;;;3.43;3.13;;;17.10;1.00;;;;;;2612409;54;20431;-61
2024/02/08 12:55:33;;;;;;;3.70;3.40;;;17.10;1.00;;;;;;2612401;54;20431;-62
2024/02/08 12:58:03;;;;;;;3.50;3.20;;;17.20;1.00;;;;;;2612923;54;20419;-62
2024/02/08 13:00:35;;;;;;;3.30;3.00;;;17.20;1.00;;;;;;2612165;54;20169;-61
2024/02/08 13:03:08;;;;;;;3.43;3.20;;;17.20;1.00;;;;;;2612400;54;21014;-60
2024/02/08 13:05:45;;;;;;;3.87;3.57;;;17.10;1.00;;;;;;2612078;54;20584;-61
2024/02/08 13:08:20;;;;;;;3.50;3.30;;;17.10;1.00;;;;;;2613083;47;20435;-60
2024/02/08 13:10:56;;;;;;;4.23;3.03;;;17.10;1.00;;;;;;2612335;54;20449;-61
2024/02/08 13:13:23;;;;;;;3.27;3.07;;;17.20;1.00;;;;;;2612332;39;21289;-58
2024/02/08 13:15:58;;;;;;;3.73;3.43;;;17.10;1.00;;;;;;2613293;54;20408;-58
2024/02/08 13:18:31;;;;;;;6.07;3.10;;;17.10;1.00;;;;;;2612789;39;21280;-59
2024/02/08 13:21:03;;;;;;;3.73;3.43;;;17.20;1.00;;;;;;2612681;54;20397;-58
2024/02/08 13:23:30;;;;;;;3.63;3.20;;;17.10;1.00;;;;;;2612501;54;20426;-59
2024/02/08 13:25:56;;;;;;;3.40;2.97;;;17.10;1.00;;;;;;2611885;54;20969;-59
2024/02/08 13:28:26;;;;;;;3.20;2.90;;;17.10;1.00;;;;;;2612643;54;20979;-59
2024/02/08 13:30:56;;;;;;;3.77;3.47;;;17.10;1.00;;;;;;2612715;39;20807;-59
2024/02/08 13:33:21;;;;;;;3.30;3.10;;;17.10;1.00;;;;;;2612973;54;20426;-58
2024/02/08 13:35:47;;;;;;;3.50;3.17;;;17.10;1.00;;;;;;2612378;54;20408;-59
2024/02/08 13:38:15;;;;;;;3.27;3.00;;;17.10;1.00;;;;;;2612043;54;20158;-59
2024/02/08 13:40:47;;;;;;;2.97;2.73;;;17.10;1.00;;;;;;2612739;47;20185;-59
2024/02/08 13:43:16;;;;;;;2.90;2.70;;;17.10;1.00;;;;;;2612959;54;20550;-59
2024/02/08 13:45:42;;;;;;;3.40;3.10;;;17.10;1.00;;;;;;2613189;31;21000;-60
2024/02/08 13:48:14;;;;;;;3.50;3.20;;;17.10;1.00;;;;;;2613000;47;20463;-60
2024/02/08 13:50:43;;;;;;;3.40;3.17;;;17.10;1.00;;;;;;2612928;54;20150;-59
2024/02/08 13:53:14;;;;;;;3.57;3.27;;;17.10;1.00;;;;;;2612433;47;20447;-60
2024/02/08 13:55:45;;;;;;;4.27;3.43;;;17.10;1.00;;;;;;2613027;54;20463;-59
2024/02/08 13:58:12;;;;;;;3.10;2.80;;;17.10;1.00;;;;;;2612652;39;20778;-59
2024/02/08 14:00:41;;;;;;;2.60;2.40;;;17.10;1.00;;;;;;2612257;39;21200;-59
2024/02/08 14:03:08;;;;;;;3.33;3.13;;;17.10;1.00;;;;;;2610593;54;20508;-66
2024/02/08 14:05:38;;;;;;;4.90;2.97;;;17.10;1.00;;;;;;2612414;54;20400;-65
2024/02/08 14:08:05;;;;;;;3.07;2.87;;;17.10;1.00;;;;;;2612485;54;20510;-64
2024/02/08 14:10:36;;;;;;;3.13;2.73;;;17.10;1.00;;;;;;2611889;54;20438;-65
2024/02/08 14:13:14;;;;;;;3.40;3.10;;;17.10;1.00;;;;;;2612397;51;20462;-65
2024/02/08 14:15:46;;;;;;;3.00;2.80;;;17.10;1.00;;;;;;2612914;54;20402;-64
2024/02/08 14:18:23;;;;;;;3.27;3.07;;;17.10;1.00;;;;;;2612306;54;20415;-65
2024/02/08 14:21:00;;;;;;;4.03;3.63;;;17.10;1.00;;;;;;2612093;54;20491;-65
2024/02/08 14:23:30;;;;;;;3.43;3.00;;;17.10;1.00;;;;;;2611886;54;20407;-60
2024/02/08 14:28:33;;;;;;;3.00;2.80;;;17.10;1.00;;;;;;2613052;39;20878;-60
2024/02/08 14:31:02;;;;;;;3.50;3.20;;;17.10;1.00;;;;;;2612076;54;20399;-60
2024/02/08 14:33:28;;;;;;;3.70;3.40;;;17.10;1.00;;;;;;2612869;54;20422;-59
2024/02/08 14:35:55;;;;;;;2.83;2.63;;;17.10;1.00;;;;;;2611543;47;20412;-59
2024/02/08 14:38:26;;;;;;;3.17;2.97;;;17.00;1.00;;;;;;2612169;47;20408;-59
2024/02/08 14:40:53;;;;;;;3.00;2.80;;;17.10;1.00;;;;;;2612284;54;20407;-59
2024/02/08 14:43:31;;;;;;;2.93;2.73;;;17.10;1.00;;;;;;2613181;39;20852;-59
2024/02/08 14:46:01;;;;;;;3.03;2.70;;;17.00;1.00;;;;;;2613519;39;20859;-59
2024/02/08 14:48:28;;;;;;;3.47;2.97;;;17.00;1.00;;;;;;2612015;54;20432;-59
2024/02/08 14:50:55;;;;;;;2.90;2.70;;;17.00;1.00;;;;;;2611780;54;21452;-60
2024/02/08 14:53:23;;;;;;;3.23;2.93;;;17.00;1.00;;;;;;2612438;51;20437;-61
2024/02/08 14:55:52;;;;;;;3.20;3.00;;;17.00;1.00;;;;;;2611167;54;20956;-62
2024/02/08 14:58:33;;;;;;;2.97;2.77;;;17.10;1.00;;;;;;2612959;39;21034;-61
2024/02/08 15:01:08;;;;;;;3.30;3.07;;;17.00;1.00;;;;;;2612302;54;20420;-61
2024/02/08 15:03:44;;;;;;;3.23;2.97;;;17.00;1.00;;;;;;2611356;47;20464;-60
2024/02/08 15:12:09;;;;;;;3.00;2.53;;;17.10;1.00;;;;;;2611571;54;20429;-60
2024/02/08 15:14:42;;;;;;;3.40;3.13;;;17.00;1.00;;;;;;2612519;54;20427;-61
2024/02/08 15:17:10;;;;;;;3.70;3.40;;;17.10;1.00;;;;;;2611288;47;20427;-60
2024/02/08 15:19:45;;;;;;;3.63;3.37;;;17.00;1.00;;;;;;2611908;54;20432;-62
2024/02/08 15:22:47;;;;;;;2.83;2.63;;;17.00;1.00;;;;;;2613251;39;21750;-61
2024/02/08 15:25:07;;;;;;;3.90;2.93;;;17.00;1.00;;;;;;2612295;54;20456;-60
2024/02/08 15:30:36;;;;;;;3.10;2.80;;;17.00;1.00;;;;;;2612085;54;20468;-61